Time;durP1;ratioP1;P1;durP2;ratioP2;P2;SDS_P1;SDS_P2;PMS_P1;PMS_P2;Temp;Humidity;BMP_temperature;BMP_pressure;BME280_temperature;BME280_humidity;BME280_pressure;Samples;Min_cycle;Max_cycle;Signal;HPM_P1;HPM_P2
2023/10/01 00:02:06;;;;;;;13.52;7.32;;;17.00;99.90;;;;;;5074512;28;20112;-92
2023/10/01 00:04:32;;;;;;;10.70;7.72;;;16.90;99.90;;;;;;5074864;28;20103;-92
2023/10/01 00:06:59;;;;;;;14.73;7.55;;;16.70;99.90;;;;;;5075006;28;20044;-92
2023/10/01 00:09:24;;;;;;;18.13;8.05;;;17.50;99.90;;;;;;5075826;28;20070;-92
2023/10/01 00:11:50;;;;;;;14.07;6.88;;;17.90;99.90;;;;;;5092561;28;20000;-90
2023/10/01 00:14:17;;;;;;;13.43;7.22;;;17.10;99.90;;;;;;5115190;28;20036;-91
2023/10/01 00:16:43;;;;;;;14.30;7.45;;;17.20;99.90;;;;;;5109702;28;20073;-91
2023/10/01 00:19:09;;;;;;;12.07;7.57;;;16.80;99.90;;;;;;5090842;28;20031;-91
2023/10/01 00:21:35;;;;;;;13.45;7.47;;;16.70;99.90;;;;;;5094348;28;20024;-90
2023/10/01 00:24:01;;;;;;;18.45;7.07;;;16.60;99.90;;;;;;5094962;28;20032;-91
2023/10/01 00:26:26;;;;;;;12.90;6.70;;;16.60;99.90;;;;;;5094868;28;20045;-92
2023/10/01 00:28:52;;;;;;;14.25;7.15;;;17.60;99.90;;;;;;5094295;28;20023;-89
2023/10/01 00:31:19;;;;;;;11.57;6.95;;;16.60;99.90;;;;;;5095094;28;20027;-91
2023/10/01 00:33:47;;;;;;;8.20;6.05;;;17.70;99.90;;;;;;5097584;28;20036;-90
2023/10/01 00:36:13;;;;;;;10.10;6.70;;;17.10;99.90;;;;;;5105073;28;20383;-92
2023/10/01 00:38:38;;;;;;;11.77;6.80;;;16.70;99.90;;;;;;5102836;28;20088;-90
2023/10/01 00:41:07;;;;;;;11.50;5.88;;;16.60;99.90;;;;;;5095634;28;20064;-90
2023/10/01 00:43:42;;;;;;;12.20;6.07;;;16.90;99.90;;;;;;5073719;28;20032;-91
2023/10/01 00:46:18;;;;;;;12.88;6.82;;;17.40;99.90;;;;;;5074674;28;20063;-92
2023/10/01 00:48:44;;;;;;;10.85;5.93;;;16.50;99.90;;;;;;5074122;28;20031;-92
2023/10/01 00:51:10;;;;;;;11.82;6.18;;;17.00;99.90;;;;;;5074304;28;20073;-90
2023/10/01 00:53:36;;;;;;;14.48;6.25;;;16.50;99.90;;;;;;5073393;28;20115;-91
2023/10/01 00:56:02;;;;;;;16.17;5.53;;;16.70;99.90;;;;;;5073994;28;20032;-92
2023/10/01 00:58:29;;;;;;;10.98;5.97;;;17.80;99.90;;;;;;5073885;28;20024;-91
2023/10/01 01:00:55;;;;;;;19.48;6.25;;;16.90;99.90;;;;;;5073925;28;20099;-93
2023/10/01 01:03:22;;;;;;;15.65;6.32;;;17.60;99.90;;;;;;5073831;28;20035;-91
2023/10/01 01:06:05;;;;;;;12.27;6.13;;;16.80;99.90;;;;;;5073599;28;20472;-91
2023/10/01 01:08:52;;;;;;;14.20;5.30;;;17.10;99.90;;;;;;5080277;28;20024;-91
2023/10/01 01:11:19;;;;;;;9.93;6.28;;;17.80;99.90;;;;;;5074039;28;20036;-91
2023/10/01 01:13:45;;;;;;;12.23;6.57;;;16.70;99.90;;;;;;5073352;28;20039;-91
2023/10/01 01:16:19;;;;;;;14.55;5.88;;;17.50;99.90;;;;;;5073658;28;20070;-92
2023/10/01 01:18:51;;;;;;;11.80;6.10;;;16.50;99.90;;;;;;5073409;28;20124;-92
2023/10/01 01:21:23;;;;;;;10.57;5.57;;;17.40;99.90;;;;;;5073674;28;20028;-92
2023/10/01 01:23:50;;;;;;;16.15;6.25;;;16.50;99.90;;;;;;5073525;28;20030;-91
2023/10/01 01:26:21;;;;;;;11.48;6.40;;;17.40;99.90;;;;;;5072602;28;20049;-91
2023/10/01 01:28:47;;;;;;;12.43;6.07;;;17.60;99.90;;;;;;5092172;28;20077;-91
2023/10/01 01:31:14;;;;;;;9.95;6.25;;;16.60;99.90;;;;;;5095026;28;20024;-91
2023/10/01 01:33:40;;;;;;;13.27;6.15;;;16.40;99.90;;;;;;5099845;28;20472;-90
2023/10/01 01:36:09;;;;;;;11.82;5.70;;;17.20;99.90;;;;;;5098470;28;20058;-90
2023/10/01 01:38:37;;;;;;;12.85;6.22;;;16.40;99.90;;;;;;5097341;28;20020;-91
2023/10/01 01:41:19;;;;;;;11.70;6.78;;;17.40;99.90;;;;;;5061375;28;20044;-94
2023/10/01 01:43:46;;;;;;;12.45;6.15;;;16.30;99.90;;;;;;5097197;28;20441;-90
2023/10/01 01:46:12;;;;;;;15.55;7.43;;;17.40;99.90;;;;;;5097418;28;20440;-90
2023/10/01 01:48:40;;;;;;;13.40;6.28;;;16.40;99.90;;;;;;5097171;28;20032;-90
2023/10/01 01:51:17;;;;;;;11.60;6.93;;;16.40;99.90;;;;;;5042501;28;20062;-94
2023/10/01 01:53:46;;;;;;;15.77;7.57;;;16.30;99.90;;;;;;5097069;28;20032;-92
2023/10/01 01:56:18;;;;;;;11.23;7.10;;;16.60;99.90;;;;;;5097667;28;20058;-90
2023/10/01 01:58:44;;;;;;;12.07;6.13;;;16.30;99.90;;;;;;5098244;28;20035;-91
2023/10/01 02:03:50;;;;;;;11.95;6.22;;;16.60;99.90;;;;;;5101671;28;20032;-93
2023/10/01 02:06:26;;;;;;;15.25;6.97;;;16.50;99.90;;;;;;5105937;28;20028;-92
2023/10/01 02:08:57;;;;;;;26.10;8.25;;;16.20;99.90;;;;;;5113138;28;20005;-94
2023/10/01 02:11:35;;;;;;;;;;;16.30;99.90;;;;;;5111779;28;20035;-93
2023/10/01 02:14:02;;;;;;;14.18;6.32;;;16.60;99.90;;;;;;5107005;28;19911;-93
2023/10/01 02:16:37;;;;;;;14.75;7.13;;;17.40;99.90;;;;;;5097899;28;20491;-93
2023/10/01 02:19:18;;;;;;;15.18;7.35;;;16.10;99.90;;;;;;5098352;28;20118;-93
2023/10/01 02:21:59;;;;;;;15.93;7.55;;;16.10;99.90;;;;;;5102121;28;20053;-93
2023/10/01 02:27:43;;;;;;;11.45;6.57;;;16.30;99.90;;;;;;5116753;28;20020;-93
2023/10/01 02:30:24;;;;;;;17.48;7.30;;;16.30;99.90;;;;;;5086821;28;20046;-93
2023/10/01 02:33:15;;;;;;;12.52;6.63;;;16.10;99.90;;;;;;5076105;28;20039;-92
2023/10/01 02:35:35;;;;;;;15.43;7.00;;;15.90;99.90;;;;;;5076399;28;20021;-91
2023/10/01 02:38:08;;;;;;;16.38;6.38;;;16.60;99.90;;;;;;5076213;28;20062;-90
2023/10/01 02:40:37;;;;;;;15.57;7.25;;;16.30;99.90;;;;;;5076051;28;20530;-93
2023/10/01 02:43:12;;;;;;;17.50;7.93;;;16.40;99.90;;;;;;5074073;28;20072;-91
2023/10/01 02:45:41;;;;;;;14.50;7.32;;;16.20;99.90;;;;;;5076209;28;20476;-92
2023/10/01 02:48:13;;;;;;;12.00;6.53;;;16.20;99.90;;;;;;5076635;28;20028;-93
2023/10/01 02:50:42;;;;;;;16.13;7.65;;;16.00;99.90;;;;;;5075912;28;20028;-92
2023/10/01 02:53:08;;;;;;;17.35;7.47;;;17.30;99.90;;;;;;5076880;28;20048;-93
2023/10/01 02:55:34;;;;;;;16.60;7.05;;;17.60;99.90;;;;;;5095887;28;20099;-93
2023/10/01 02:58:17;;;;;;;23.38;8.02;;;16.70;99.90;;;;;;5096526;28;20022;-93
2023/10/01 03:00:53;;;;;;;14.85;6.70;;;17.30;99.90;;;;;;5068457;23;20116;-93
2023/10/01 03:03:19;;;;;;;13.27;6.90;;;15.60;99.90;;;;;;5059011;28;20021;-94
2023/10/01 03:05:47;;;;;;;21.00;7.35;;;17.30;99.90;;;;;;5064525;28;20036;-93
2023/10/01 03:10:58;;;;;;;11.32;6.45;;;16.80;99.90;;;;;;5058147;28;20500;-92
2023/10/01 03:13:30;;;;;;;13.68;7.20;;;16.20;99.90;;;;;;5058352;28;20033;-91
2023/10/01 03:16:44;;;;;;;11.57;6.43;;;16.10;99.90;;;;;;5054151;28;20029;-92
2023/10/01 03:18:45;;;;;;;14.10;7.45;;;16.50;99.90;;;;;;5058081;28;20098;-91
2023/10/01 03:24:16;;;;;;;9.05;6.28;;;16.70;99.90;;;;;;5057186;28;20107;-92
2023/10/01 03:26:44;;;;;;;13.75;7.43;;;16.20;99.90;;;;;;5037882;28;20033;-94
2023/10/01 03:29:15;;;;;;;14.93;6.57;;;16.40;99.90;;;;;;5055781;28;20029;-94
2023/10/01 03:31:46;;;;;;;16.55;7.20;;;16.50;99.90;;;;;;5047989;28;20032;-93
2023/10/01 03:34:28;;;;;;;12.20;6.70;;;16.10;99.90;;;;;;5055643;28;20033;-94
2023/10/01 03:37:00;;;;;;;14.57;6.90;;;16.10;99.90;;;;;;5051136;28;20029;-93
2023/10/01 03:39:44;;;;;;;15.25;7.43;;;17.20;99.90;;;;;;5055601;28;20025;-93
2023/10/01 03:42:13;;;;;;;14.98;6.68;;;16.00;99.90;;;;;;5055049;28;20059;-93
2023/10/01 03:47:29;;;;;;;16.55;6.90;;;16.90;99.90;;;;;;5035828;28;20037;-92
2023/10/01 03:49:57;;;;;;;11.85;6.70;;;16.60;99.90;;;;;;5049061;28;20484;-91
2023/10/01 03:52:29;;;;;;;15.40;6.75;;;16.10;99.90;;;;;;5054933;28;20024;-91
2023/10/01 04:00:32;;;;;;;17.48;6.43;;;17.10;99.90;;;;;;5056015;28;20554;-91
2023/10/01 04:02:58;;;;;;;13.50;6.82;;;16.10;99.90;;;;;;5058071;28;20025;-92
2023/10/01 04:05:44;;;;;;;14.23;6.65;;;16.50;99.90;;;;;;5054550;28;20035;-91
2023/10/01 04:08:16;;;;;;;16.33;6.97;;;16.00;99.90;;;;;;5054539;28;20112;-91
2023/10/01 04:10:47;;;;;;;15.30;7.68;;;16.10;99.90;;;;;;5066354;28;20013;-92
2023/10/01 04:13:13;;;;;;;;;;;15.90;99.90;;;;;;5059071;28;20037;-91
2023/10/01 04:15:46;;;;;;;17.90;8.07;;;16.00;99.90;;;;;;5070862;28;19988;-90
2023/10/01 04:20:48;;;;;;;16.17;6.68;;;15.90;99.90;;;;;;5054296;28;20029;-90
2023/10/01 04:23:29;;;;;;;13.65;6.82;;;16.00;99.90;;;;;;5054108;28;20025;-91
2023/10/01 04:25:55;;;;;;;15.88;7.32;;;16.00;99.90;;;;;;5054061;28;20098;-90
2023/10/01 04:28:20;;;;;;;18.48;6.70;;;16.00;99.90;;;;;;5053983;28;20045;-90
2023/10/01 04:31:06;;;;;;;16.58;7.57;;;15.90;99.90;;;;;;5053570;28;20045;-92
2023/10/01 04:33:31;;;;;;;14.52;7.53;;;15.20;99.90;;;;;;5054242;28;20523;-91
2023/10/01 04:35:58;;;;;;;16.58;7.22;;;16.10;99.90;;;;;;5054254;28;20029;-92
2023/10/01 04:38:32;;;;;;;13.77;6.85;;;16.10;99.90;;;;;;5054584;28;20036;-92
2023/10/01 04:40:59;;;;;;;16.00;7.88;;;16.10;99.90;;;;;;5054321;28;20021;-94
2023/10/01 04:43:26;;;;;;;15.25;7.55;;;15.90;99.90;;;;;;5054547;28;20056;-92
2023/10/01 04:45:52;;;;;;;17.88;7.25;;;16.80;99.90;;;;;;5054025;28;20021;-92
2023/10/01 04:48:22;;;;;;;17.55;7.75;;;15.90;99.90;;;;;;5055125;28;20029;-90
2023/10/01 04:51:08;;;;;;;15.50;7.70;;;17.20;99.90;;;;;;5054120;28;20052;-92
2023/10/01 04:53:46;;;;;;;14.10;7.30;;;15.20;99.90;;;;;;5053535;28;20037;-91
2023/10/01 04:56:20;;;;;;;17.08;7.78;;;16.30;99.90;;;;;;5053780;28;20036;-94
2023/10/01 04:58:51;;;;;;;12.95;6.75;;;16.60;99.90;;;;;;5054225;28;20033;-92
2023/10/01 05:01:23;;;;;;;16.58;7.40;;;15.90;99.90;;;;;;5054675;28;20049;-92
2023/10/01 05:03:50;;;;;;;12.95;6.60;;;14.90;99.90;;;;;;5053367;28;20041;-93
2023/10/01 05:06:31;;;;;;;13.27;7.55;;;16.50;99.90;;;;;;5053566;28;20029;-93
2023/10/01 05:08:58;;;;;;;20.63;7.78;;;15.90;99.90;;;;;;5042635;28;20106;-92
2023/10/01 05:11:44;;;;;;;17.17;8.48;;;15.90;99.90;;;;;;5057779;28;20100;-93
2023/10/01 05:14:28;;;;;;;15.13;7.50;;;16.40;99.90;;;;;;5055906;28;20108;-92
2023/10/01 05:16:54;;;;;;;20.08;7.88;;;15.90;99.90;;;;;;5062273;28;20021;-93
2023/10/01 05:19:23;;;;;;;12.88;7.97;;;16.70;99.90;;;;;;5065044;28;20381;-92
2023/10/01 05:21:49;;;;;;;11.70;7.35;;;16.70;99.90;;;;;;5053783;28;20564;-93
2023/10/01 05:24:16;;;;;;;18.80;7.25;;;15.80;99.90;;;;;;5053677;28;20021;-94
2023/10/01 05:26:44;;;;;;;15.75;7.55;;;16.20;99.90;;;;;;5053466;28;20068;-92
2023/10/01 05:29:13;;;;;;;19.88;7.75;;;16.50;99.90;;;;;;5053576;28;20124;-92
2023/10/01 05:31:41;;;;;;;23.70;8.07;;;16.60;99.90;;;;;;5057529;28;20477;-92
2023/10/01 05:34:06;;;;;;;12.65;7.25;;;15.80;99.90;;;;;;5056067;28;20528;-93
2023/10/01 05:36:35;;;;;;;14.13;7.80;;;15.80;99.90;;;;;;5056874;28;20021;-94
2023/10/01 05:44:15;;;;;;;17.00;8.30;;;15.70;99.90;;;;;;5279024;22;20056;-93
2023/10/01 05:46:42;;;;;;;13.23;7.07;;;15.70;99.90;;;;;;5057250;28;20033;-94
2023/10/01 05:49:12;;;;;;;15.23;6.93;;;15.70;99.90;;;;;;5056578;28;20044;-93
2023/10/01 05:51:44;;;;;;;13.02;7.50;;;16.30;99.90;;;;;;5058339;28;20017;-95
2023/10/01 05:54:12;;;;;;;16.10;8.18;;;16.80;99.90;;;;;;5058377;28;20044;-93
2023/10/01 05:56:44;;;;;;;12.57;7.90;;;15.60;99.90;;;;;;5061320;28;20377;-92
2023/10/01 05:59:22;;;;;;;13.85;7.50;;;15.60;99.90;;;;;;5067662;28;20025;-92
2023/10/01 06:01:48;;;;;;;14.70;7.18;;;16.80;99.90;;;;;;5058998;28;20035;-92
2023/10/01 06:04:18;;;;;;;15.07;7.60;;;15.90;99.90;;;;;;5063790;28;20025;-94
2023/10/01 06:06:46;;;;;;;10.97;7.20;;;15.70;99.90;;;;;;5058293;28;20049;-94
2023/10/01 06:12:03;;;;;;;13.13;8.07;;;15.50;99.90;;;;;;5281033;22;19947;-93
2023/10/01 06:14:39;;;;;;;14.98;8.18;;;15.20;99.90;;;;;;5071274;28;20060;-94
2023/10/01 06:17:06;;;;;;;15.60;7.80;;;15.50;99.90;;;;;;5050867;28;20041;-94
2023/10/01 06:19:34;;;;;;;16.58;8.60;;;15.50;99.90;;;;;;5076855;28;20024;-94
2023/10/01 06:22:16;;;;;;;17.80;7.32;;;15.40;99.90;;;;;;5080434;28;20021;-93
2023/10/01 06:24:43;;;;;;;;;;;16.40;99.90;;;;;;5074975;28;20029;-92
2023/10/01 06:27:17;;;;;;;16.67;7.97;;;15.10;99.90;;;;;;5076137;28;19915;-95
2023/10/01 06:29:49;;;;;;;15.38;7.78;;;16.40;99.90;;;;;;5066056;28;20024;-92
2023/10/01 06:32:23;;;;;;;13.13;7.45;;;16.30;99.90;;;;;;5056894;28;20055;-93
2023/10/01 06:34:51;;;;;;;16.75;8.27;;;15.50;99.90;;;;;;5061587;28;20097;-92
2023/10/01 06:37:19;;;;;;;14.63;8.18;;;15.60;99.90;;;;;;5056507;28;20025;-93
2023/10/01 06:39:56;;;;;;;12.82;8.48;;;15.60;99.90;;;;;;5056913;28;20036;-93
2023/10/01 06:42:24;;;;;;;15.43;8.70;;;15.40;99.90;;;;;;5055038;28;20087;-93
2023/10/01 06:44:54;;;;;;;15.75;7.85;;;15.50;99.90;;;;;;5053682;28;20044;-92
2023/10/01 06:48:08;;;;;;;16.63;8.82;;;15.50;99.90;;;;;;5056380;28;20021;-93
2023/10/01 06:50:43;;;;;;;18.48;8.63;;;15.60;99.90;;;;;;5054638;28;20025;-94
2023/10/01 06:53:13;;;;;;;17.65;8.32;;;15.50;99.90;;;;;;5057409;28;20033;-94
2023/10/01 06:55:47;;;;;;;16.40;8.40;;;15.50;99.90;;;;;;5051976;28;20075;-93
2023/10/01 06:58:24;;;;;;;17.77;8.73;;;16.60;99.90;;;;;;5051535;28;20033;-93
2023/10/01 07:00:50;;;;;;;15.23;8.02;;;16.40;99.90;;;;;;5053373;28;20111;-92
2023/10/01 07:03:19;;;;;;;13.30;8.90;;;15.50;99.90;;;;;;5054742;28;20460;-93
2023/10/01 07:05:46;;;;;;;17.55;9.95;;;15.60;99.90;;;;;;5055905;28;20029;-92
2023/10/01 07:08:16;;;;;;;17.70;9.80;;;16.80;99.90;;;;;;5055068;28;20615;-91
2023/10/01 07:10:42;;;;;;;20.52;8.88;;;15.60;99.90;;;;;;5055367;28;20057;-93
2023/10/01 07:13:10;;;;;;;16.63;8.82;;;15.60;99.90;;;;;;5053789;28;20033;-93
2023/10/01 07:15:39;;;;;;;14.82;8.98;;;16.00;99.90;;;;;;5057852;28;20512;-93
2023/10/01 07:18:29;;;;;;;18.10;9.35;;;16.60;99.90;;;;;;5056762;28;20021;-93
2023/10/01 07:20:54;;;;;;;16.58;9.50;;;15.70;99.90;;;;;;5054411;28;20029;-93
2023/10/01 07:23:22;;;;;;;20.85;10.15;;;16.90;99.90;;;;;;5054744;28;20074;-92
2023/10/01 07:25:49;;;;;;;18.23;10.27;;;15.70;99.90;;;;;;5055502;28;20578;-93
2023/10/01 07:28:18;;;;;;;18.33;10.23;;;15.60;99.90;;;;;;5057144;28;20055;-91
2023/10/01 07:30:51;;;;;;;19.23;9.88;;;16.10;99.90;;;;;;5049864;28;20029;-90
2023/10/01 07:33:17;;;;;;;15.93;9.43;;;15.70;99.90;;;;;;5054783;28;20041;-92
2023/10/01 07:35:45;;;;;;;18.23;10.68;;;15.70;99.90;;;;;;5051718;28;20036;-92
2023/10/01 07:38:14;;;;;;;15.45;9.77;;;16.00;99.90;;;;;;5048196;28;20028;-89
2023/10/01 07:40:57;;;;;;;17.33;10.18;;;17.00;99.90;;;;;;5052735;28;20021;-89
2023/10/01 07:43:26;;;;;;;22.10;11.85;;;16.50;99.90;;;;;;5054092;28;20033;-86
2023/10/01 07:45:57;;;;;;;15.90;8.65;;;16.00;99.90;;;;;;5060181;28;20022;-90
2023/10/01 07:48:24;;;;;;;17.05;10.40;;;16.80;99.90;;;;;;5062019;28;20034;-88
2023/10/01 07:50:53;;;;;;;17.98;9.73;;;15.90;99.90;;;;;;5060720;28;20469;-88
2023/10/01 07:53:18;;;;;;;14.95;9.10;;;16.30;99.90;;;;;;5053978;28;20036;-89
2023/10/01 07:56:01;;;;;;;22.58;11.65;;;16.00;99.90;;;;;;5053360;28;20028;-93
2023/10/01 07:58:45;;;;;;;29.33;10.75;;;15.60;99.90;;;;;;5048801;28;20017;-87
2023/10/01 08:03:56;;;;;;;17.55;10.95;;;16.30;99.90;;;;;;5055780;28;20524;-90
2023/10/01 08:06:29;;;;;;;21.40;11.25;;;16.10;99.90;;;;;;5053665;28;20048;-89
2023/10/01 08:08:59;;;;;;;17.77;10.15;;;16.80;99.90;;;;;;5053924;28;20040;-91
2023/10/01 08:14:11;;;;;;;20.85;11.32;;;16.30;99.90;;;;;;5051457;28;20088;-85
2023/10/01 08:16:47;;;;;;;20.73;12.07;;;16.30;99.90;;;;;;5055621;28;20027;-88
2023/10/01 08:19:23;;;;;;;21.42;11.02;;;16.40;99.90;;;;;;5057693;28;20116;-88
2023/10/01 08:21:53;;;;;;;22.30;10.90;;;16.80;99.90;;;;;;5059122;28;20089;-89
2023/10/01 08:24:19;;;;;;;;;;;16.40;99.90;;;;;;5061351;28;20073;-90
2023/10/01 08:27:12;;;;;;;21.65;11.10;;;16.50;99.90;;;;;;5054666;28;19904;-91
2023/10/01 08:32:38;;;;;;;22.52;10.85;;;16.60;99.90;;;;;;5053961;28;20052;-91
2023/10/01 08:35:07;;;;;;;22.13;11.95;;;16.70;99.90;;;;;;5050219;28;20029;-83
2023/10/01 08:37:37;;;;;;;24.70;12.27;;;16.70;99.90;;;;;;5049625;28;20033;-84
2023/10/01 08:40:17;;;;;;;15.48;9.90;;;16.80;99.90;;;;;;5051419;28;20072;-92
2023/10/01 08:42:44;;;;;;;23.50;12.07;;;16.80;99.90;;;;;;5051679;28;20522;-92
2023/10/01 08:45:12;;;;;;;29.13;11.55;;;16.80;99.90;;;;;;5052410;28;20071;-90
2023/10/01 08:47:38;;;;;;;20.70;10.88;;;17.00;99.90;;;;;;5059441;28;20052;-93
2023/10/01 09:00:58;;;;;;;18.80;11.38;;;17.00;99.90;;;;;;5061141;28;20481;-91
2023/10/01 09:03:36;;;;;;;18.02;10.98;;;17.30;99.90;;;;;;5054082;28;20432;-92
2023/10/01 09:06:04;;;;;;;20.23;11.18;;;18.40;99.90;;;;;;5060018;28;20029;-94
2023/10/01 09:08:45;;;;;;;25.10;12.18;;;17.20;99.90;;;;;;5060153;28;20052;-94
2023/10/01 09:11:17;;;;;;;25.30;11.55;;;18.20;99.90;;;;;;5051496;28;20047;-93
2023/10/01 09:14:15;;;;;;;21.88;12.07;;;18.40;99.90;;;;;;5052234;28;20074;-88
2023/10/01 09:16:44;;;;;;;30.10;12.35;;;17.90;99.90;;;;;;5051694;28;20029;-88
2023/10/01 09:19:30;;;;;;;23.25;11.38;;;17.40;99.90;;;;;;5067059;28;20009;-88
2023/10/01 09:22:09;;;;;;;22.92;11.55;;;18.10;99.90;;;;;;5069999;28;20049;-91
2023/10/01 09:27:57;;;;;;;37.60;12.13;;;17.40;99.90;;;;;;5057985;28;20063;-94
2023/10/01 09:30:26;;;;;;;21.83;12.18;;;17.50;99.90;;;;;;5046639;28;20017;-93
2023/10/01 09:32:57;;;;;;;26.67;12.02;;;17.50;99.90;;;;;;5050247;28;20033;-92
2023/10/01 09:35:39;;;;;;;;;;;17.60;99.90;;;;;;5049696;28;20121;-93
2023/10/01 09:38:11;;;;;;;21.65;10.85;;;17.50;99.90;;;;;;5061314;28;19912;-92
2023/10/01 09:40:47;;;;;;;25.10;12.10;;;17.70;99.90;;;;;;5058487;28;20063;-92
2023/10/01 09:43:29;;;;;;;23.90;12.25;;;17.70;99.90;;;;;;5063190;28;20048;-94
2023/10/01 09:46:11;;;;;;;;;;;;;;;;;;;;;
2023/10/01 09:48:49;;;;;;;22.80;12.30;;;17.80;99.90;;;;;;5029554;28;20067;-93
2023/10/01 09:51:19;;;;;;;23.98;11.95;;;18.20;99.90;;;;;;5052641;28;20017;-93
2023/10/01 09:54:28;;;;;;;28.40;12.38;;;19.10;99.90;;;;;;5059441;28;20037;-94
2023/10/01 10:00:17;;;;;;;25.00;12.20;;;19.20;99.90;;;;;;5002615;28;20069;-93
2023/10/01 10:02:51;;;;;;;25.63;12.75;;;18.10;99.90;;;;;;5056090;28;20037;-90
2023/10/01 10:05:26;;;;;;;24.92;11.98;;;18.70;99.90;;;;;;5048880;28;20037;-93
2023/10/01 10:07:53;;;;;;;25.35;12.68;;;19.40;99.90;;;;;;5058196;28;20033;-92
2023/10/01 10:10:24;;;;;;;27.48;12.50;;;19.10;99.90;;;;;;5069172;28;20028;-92
2023/10/01 10:16:30;;;;;;;27.65;12.85;;;18.30;99.90;;;;;;5416398;22;20049;-93
2023/10/01 10:19:13;;;;;;;21.05;11.02;;;19.50;99.90;;;;;;5029737;28;20045;-92
2023/10/01 10:24:29;;;;;;;25.33;13.25;;;18.40;99.90;;;;;;5026160;28;20062;-93
2023/10/01 10:27:15;;;;;;;22.90;11.50;;;18.60;99.90;;;;;;5022230;28;20033;-92
2023/10/01 10:29:46;;;;;;;18.60;10.55;;;18.60;99.90;;;;;;5042033;28;20109;-94
2023/10/01 10:32:13;;;;;;;21.13;10.80;;;19.80;99.90;;;;;;5032730;28;20019;-85
2023/10/01 10:35:05;;;;;;;23.05;9.70;;;19.80;99.90;;;;;;5021411;28;20044;-85
2023/10/01 10:37:44;;;;;;;17.85;9.68;;;18.80;99.90;;;;;;5020728;28;20380;-86
2023/10/01 10:40:22;;;;;;;17.42;9.13;;;18.80;99.90;;;;;;5019589;28;20072;-83
2023/10/01 10:42:57;;;;;;;18.98;9.38;;;18.90;99.90;;;;;;5028969;28;20053;-93
2023/10/01 10:45:46;;;;;;;18.02;9.20;;;18.90;99.90;;;;;;5046840;28;20032;-92
2023/10/01 10:48:24;;;;;;;22.13;9.05;;;19.00;99.90;;;;;;5039066;28;20029;-92
2023/10/01 10:51:04;;;;;;;16.13;10.10;;;19.80;99.90;;;;;;5040072;28;20045;-92
2023/10/01 10:53:37;;;;;;;21.15;10.07;;;19.00;99.90;;;;;;5037233;28;20033;-92
2023/10/01 10:56:15;;;;;;;15.57;10.23;;;19.10;99.90;;;;;;5039142;28;20022;-94
2023/10/01 10:59:25;;;;;;;18.60;10.65;;;20.10;99.90;;;;;;5042964;28;20025;-92
2023/10/01 11:01:44;;;;;;;21.55;10.02;;;19.10;99.90;;;;;;5034640;28;20038;-92
2023/10/01 11:04:10;;;;;;;19.67;10.20;;;19.80;99.90;;;;;;5036865;28;20026;-91
2023/10/01 11:06:40;;;;;;;21.63;9.98;;;19.40;99.90;;;;;;5036842;28;20037;-90
2023/10/01 11:09:22;;;;;;;19.02;10.18;;;19.40;99.90;;;;;;5030503;28;20029;-93
2023/10/01 11:11:49;;;;;;;23.17;10.30;;;19.30;99.90;;;;;;5041676;28;20460;-92
2023/10/01 11:14:16;;;;;;;19.65;10.45;;;19.30;99.90;;;;;;5037720;28;20030;-93
2023/10/01 11:16:44;;;;;;;19.27;9.57;;;19.40;99.90;;;;;;5041134;28;20070;-91
2023/10/01 11:19:16;;;;;;;21.73;9.70;;;20.20;99.90;;;;;;5060825;28;20032;-91
2023/10/01 11:22:03;;;;;;;18.17;8.55;;;19.40;99.90;;;;;;5066978;28;20025;-93
2023/10/01 11:24:40;;;;;;;13.00;8.77;;;19.50;99.90;;;;;;5075761;28;20029;-94
2023/10/01 11:27:43;;;;;;;18.52;9.20;;;19.50;99.90;;;;;;5069572;28;20473;-92
2023/10/01 11:30:15;;;;;;;17.23;9.43;;;19.60;99.90;;;;;;5049911;28;20037;-91
2023/10/01 11:32:58;;;;;;;19.70;8.88;;;19.60;99.90;;;;;;5057836;28;20021;-92
2023/10/01 11:35:31;;;;;;;15.40;8.70;;;19.60;99.90;;;;;;5057393;28;20072;-93
2023/10/01 11:38:25;;;;;;;23.23;9.35;;;19.70;99.90;;;;;;5049351;28;20017;-93
2023/10/01 11:44:00;;;;;;;19.95;9.25;;;19.40;99.90;;;;;;5065370;28;20056;-92
2023/10/01 11:46:35;;;;;;;12.30;8.10;;;19.90;99.90;;;;;;5056158;28;20036;-94
2023/10/01 11:49:06;;;;;;;18.80;9.02;;;20.00;99.90;;;;;;5054150;28;20095;-92
2023/10/01 11:51:45;;;;;;;17.85;8.55;;;20.10;99.90;;;;;;5055031;28;20025;-93
2023/10/01 11:54:12;;;;;;;17.50;8.55;;;20.10;99.90;;;;;;5054482;28;20040;-93
2023/10/01 11:56:43;;;;;;;12.60;7.40;;;20.40;99.90;;;;;;5055341;28;20039;-93
2023/10/01 11:59:20;;;;;;;22.48;9.75;;;20.20;99.90;;;;;;5056610;28;20036;-92
2023/10/01 12:01:53;;;;;;;16.75;7.93;;;20.20;99.90;;;;;;5054962;28;20540;-93
2023/10/01 12:07:15;;;;;;;16.83;7.85;;;20.30;99.90;;;;;;5058189;28;20043;-94
2023/10/01 12:09:48;;;;;;;18.67;8.82;;;20.40;99.90;;;;;;5059646;28;20025;-94
2023/10/01 12:12:18;;;;;;;15.02;7.80;;;20.30;99.90;;;;;;5068981;28;20036;-92
2023/10/01 12:14:54;;;;;;;;;;;20.50;99.90;;;;;;5075002;28;20032;-91
2023/10/01 12:17:25;;;;;;;15.55;8.40;;;20.50;99.90;;;;;;5072527;28;19921;-93
2023/10/01 12:19:52;;;;;;;13.70;8.02;;;20.60;99.90;;;;;;5058043;28;20485;-87
2023/10/01 12:22:23;;;;;;;17.23;8.80;;;20.60;99.90;;;;;;5051884;28;20033;-89
2023/10/01 12:25:08;;;;;;;15.90;8.63;;;20.60;99.90;;;;;;5053052;28;20028;-89
2023/10/01 12:27:52;;;;;;;16.90;8.57;;;21.10;99.90;;;;;;5067834;28;20024;-94
2023/10/01 12:30:27;;;;;;;15.18;8.73;;;20.70;99.90;;;;;;5068634;28;20056;-94
2023/10/01 12:33:00;;;;;;;14.85;8.23;;;20.80;99.90;;;;;;5067265;28;20082;-93
2023/10/01 12:35:32;;;;;;;16.05;7.40;;;20.80;99.90;;;;;;5064915;28;20036;-94
2023/10/01 12:40:52;;;;;;;17.27;8.25;;;20.80;99.90;;;;;;5077543;28;20036;-95
2023/10/01 12:46:14;;;;;;;17.30;8.82;;;20.90;99.90;;;;;;5070951;28;20051;-94
2023/10/01 12:49:14;;;;;;;18.25;9.35;;;20.40;99.90;;;;;;5067322;28;20036;-93
2023/10/01 12:54:37;;;;;;;17.67;9.13;;;21.30;99.90;;;;;;5070328;28;20055;-95
2023/10/01 12:57:09;;;;;;;17.98;9.25;;;21.20;99.90;;;;;;5072919;28;20013;-95
2023/10/01 13:13:11;;;;;;;16.60;8.70;;;21.50;99.90;;;;;;5073763;28;20053;-94
2023/10/01 13:15:41;;;;;;;17.23;8.90;;;21.50;99.90;;;;;;5056218;28;20087;-96
2023/10/01 13:18:21;;;;;;;20.60;9.90;;;21.50;99.90;;;;;;5076641;28;20020;-96
2023/10/01 13:26:24;;;;;;;17.58;8.57;;;21.50;99.90;;;;;;5658198;22;20057;-94
2023/10/01 15:58:55;;;;;;;17.75;9.13;;;22.40;99.90;;;;;;2432058;22;20060;-86
2023/10/01 16:01:23;;;;;;;14.98;8.88;;;22.70;99.90;;;;;;5031975;28;20033;-88
2023/10/01 16:03:52;;;;;;;16.33;8.75;;;22.30;99.90;;;;;;5031359;28;20037;-86
2023/10/01 16:06:18;;;;;;;20.25;9.32;;;22.30;99.90;;;;;;5035033;28;20056;-90
2023/10/01 16:08:44;;;;;;;14.90;9.10;;;22.20;99.90;;;;;;5035223;28;20045;-87
2023/10/01 16:11:12;;;;;;;15.95;8.30;;;22.10;99.90;;;;;;5034161;28;20097;-89
2023/10/01 16:13:38;;;;;;;17.30;8.70;;;22.00;99.90;;;;;;5034699;28;20113;-87
2023/10/01 16:16:07;;;;;;;17.15;8.82;;;22.10;99.90;;;;;;5032286;28;20030;-93
2023/10/01 16:18:33;;;;;;;20.55;10.18;;;22.00;99.90;;;;;;5035660;28;20049;-90
2023/10/01 16:21:03;;;;;;;19.40;9.50;;;22.60;99.90;;;;;;5035438;28;20017;-87
2023/10/01 16:23:40;;;;;;;14.57;8.52;;;21.90;99.90;;;;;;5033233;28;20077;-89
2023/10/01 16:26:10;;;;;;;15.70;9.02;;;21.90;99.90;;;;;;5013452;28;20034;-88
2023/10/01 16:28:40;;;;;;;16.67;9.57;;;21.80;99.90;;;;;;5013937;28;20022;-88
2023/10/01 16:31:07;;;;;;;24.23;10.35;;;21.90;99.90;;;;;;5017650;28;20026;-88
2023/10/01 16:33:42;;;;;;;18.95;10.05;;;21.90;99.90;;;;;;5029423;28;20045;-87
2023/10/01 16:36:09;;;;;;;20.48;9.25;;;21.80;99.90;;;;;;5025732;28;20049;-87
2023/10/01 16:38:38;;;;;;;18.05;9.77;;;21.70;99.90;;;;;;5026393;28;20104;-88
2023/10/01 16:41:20;;;;;;;18.60;10.02;;;21.70;99.90;;;;;;5033120;28;20496;-88
2023/10/01 16:43:53;;;;;;;16.38;10.18;;;21.60;99.90;;;;;;5033847;28;20025;-86
2023/10/01 16:46:22;;;;;;;20.30;10.35;;;21.60;99.90;;;;;;5034110;28;20040;-87
2023/10/01 16:48:49;;;;;;;18.88;9.82;;;21.50;99.90;;;;;;5046171;28;20028;-87
2023/10/01 16:53:45;;;;;;;17.13;9.98;;;21.40;99.90;;;;;;5037807;28;20045;-92
2023/10/01 16:59:22;;;;;;;18.73;9.85;;;21.40;99.90;;;;;;6133762;23;21221;31
2023/10/01 17:01:55;;;;;;;18.95;10.13;;;21.30;99.90;;;;;;4933295;29;20086;-93
2023/10/01 17:04:26;;;;;;;15.75;9.85;;;20.20;99.90;;;;;;4943660;29;20056;-91
2023/10/01 17:06:53;;;;;;;16.77;9.00;;;21.30;99.90;;;;;;4941363;29;20038;-93
2023/10/01 17:09:33;;;;;;;17.45;9.18;;;21.20;99.90;;;;;;4940229;29;20024;-92
2023/10/01 17:12:00;;;;;;;17.33;9.55;;;22.00;99.90;;;;;;4939644;29;20115;-92
2023/10/01 17:14:27;;;;;;;15.65;9.18;;;21.20;99.90;;;;;;4940601;29;20035;-94
2023/10/01 17:17:00;;;;;;;14.48;8.63;;;21.80;99.90;;;;;;4944461;29;20350;-94